Antrim, New Hampshire
Current Conditions -  °F | °C
As of 11:52 PM on Monday 20 Oct 2014 (Local Time) from KAFN Reporting Station
Overcast Overcast  
Wind Chill: 44°   Ceiling: 10000
Heat Index: 44°   Visibility: 10mi
Dew Point: 39°   Wind: 0mph
Humidity: 82%   Direction: NA
Pressure: 29.99"   Gusts: NA
Location:  43.03°N, 71.95°W
Report Text: KAFN 210352Z AUTO 00000KT 10SM OVC100 07/04 A2999 RMK AO2 SLP165 T00670039
Loading
Personal Weather Stations






























Interactive Weather Map
Tropical Storm Tracking
New forecast layout! Learn more

10-Day Weather Forecast

Advertisements
Track Severe Weather on mobile